Time;durP1;ratioP1;P1;durP2;ratioP2;P2;SDS_P1;SDS_P2;PMS_P1;PMS_P2;Temp;Humidity;BMP_temperature;BMP_pressure;BME280_temperature;BME280_humidity;BME280_pressure;Samples;Min_cycle;Max_cycle;Signal;HPM_P1;HPM_P2
2021/08/31 00:00:01;;;;;;;14.52;5.90;;;;;;;;;;5043058;28;20050;-81
2021/08/31 00:02:27;;;;;;;11.90;5.97;;;;;;;;;;5042018;28;20097;-81
2021/08/31 00:04:53;;;;;;;12.43;5.53;;;;;;;;;;5039923;28;20040;-82
2021/08/31 00:07:19;;;;;;;11.20;4.80;;;;;;;;;;5040388;28;20024;-83
2021/08/31 00:09:47;;;;;;;12.98;5.47;;;;;;;;;;5037497;28;20025;-82
2021/08/31 00:12:13;;;;;;;12.02;4.95;;;;;;;;;;5041500;28;20476;-81
2021/08/31 00:14:39;;;;;;;11.20;4.40;;;;;;;;;;5037482;28;20106;-83
2021/08/31 00:17:06;;;;;;;14.05;4.90;;;;;;;;;;5039717;28;20091;-83
2021/08/31 00:19:32;;;;;;;11.60;4.63;;;;;;;;;;5044367;28;20037;-82
2021/08/31 00:21:58;;;;;;;11.82;4.45;;;;;;;;;;5043276;28;21212;-82
2021/08/31 00:24:25;;;;;;;10.57;4.63;;;;;;;;;;5040175;28;20074;-81
2021/08/31 00:26:51;;;;;;;12.02;3.95;;;;;;;;;;5043379;28;20032;-82
2021/08/31 00:29:17;;;;;;;12.55;4.30;;;;;;;;;;5042180;28;20032;-81
2021/08/31 00:31:43;;;;;;;10.18;4.80;;;;;;;;;;5038407;28;20133;-82
2021/08/31 00:34:09;;;;;;;10.85;4.45;;;;;;;;;;5044821;28;20109;-82
2021/08/31 00:36:35;;;;;;;12.60;4.50;;;;;;;;;;5045022;28;20032;-82
2021/08/31 00:39:02;;;;;;;12.23;4.32;;;;;;;;;;5042592;28;20040;-82
2021/08/31 00:41:28;;;;;;;11.50;4.25;;;;;;;;;;5043098;28;20086;-84
2021/08/31 00:43:54;;;;;;;13.02;4.55;;;;;;;;;;5042157;28;20109;-82
2021/08/31 00:46:22;;;;;;;10.05;3.92;;;;;;;;;;5061213;28;20479;-82
2021/08/31 00:48:49;;;;;;;11.88;4.60;;;;;;;;;;5042953;28;20028;-82
2021/08/31 00:51:15;;;;;;;11.23;3.92;;;;;;;;;;5048451;28;20079;-82
2021/08/31 00:53:41;;;;;;;8.98;3.92;;;;;;;;;;5057197;28;20031;-82
2021/08/31 00:56:11;;;;;;;12.07;3.95;;;;;;;;;;5042201;28;20637;-83
2021/08/31 00:58:41;;;;;;;10.02;3.85;;;;;;;;;;5053721;28;20067;-82
2021/08/31 01:01:07;;;;;;;9.63;3.90;;;;;;;;;;5041738;28;20544;-83
2021/08/31 01:03:33;;;;;;;9.57;3.95;;;;;;;;;;5039866;28;20037;-82
2021/08/31 01:06:00;;;;;;;9.15;3.65;;;;;;;;;;5041619;28;21028;-81
2021/08/31 01:08:27;;;;;;;12.02;3.97;;;;;;;;;;5043929;28;20032;-82
2021/08/31 01:10:54;;;;;;;17.13;3.92;;;;;;;;;;5043236;28;20013;-81
2021/08/31 01:13:21;;;;;;;10.30;3.83;;;;;;;;;;5043046;28;20022;-81
2021/08/31 01:15:48;;;;;;;9.60;3.88;;;;;;;;;;5039103;28;20033;-82
2021/08/31 01:18:16;;;;;;;10.82;4.13;;;;;;;;;;5044206;28;20031;-82
2021/08/31 01:20:43;;;;;;;9.45;3.88;;;;;;;;;;5038736;28;20013;-83
2021/08/31 01:23:10;;;;;;;9.17;3.60;;;;;;;;;;5058205;28;20083;-82
2021/08/31 01:25:37;;;;;;;9.25;3.30;;;;;;;;;;5050359;28;20115;-81
2021/08/31 01:28:03;;;;;;;9.60;3.55;;;;;;;;;;5041587;28;20082;-82
2021/08/31 01:30:29;;;;;;;10.63;4.10;;;;;;;;;;5040794;28;20541;-81
2021/08/31 01:32:55;;;;;;;10.50;3.97;;;;;;;;;;5035483;28;20028;-84
2021/08/31 01:35:21;;;;;;;9.88;4.03;;;;;;;;;;5040086;28;20029;-81
2021/08/31 01:37:47;;;;;;;8.88;3.30;;;;;;;;;;5036443;28;20495;-81
2021/08/31 01:40:14;;;;;;;8.52;3.75;;;;;;;;;;5041817;28;20035;-81
2021/08/31 01:42:40;;;;;;;9.95;3.72;;;;;;;;;;5034812;28;20090;-82
2021/08/31 01:45:06;;;;;;;10.35;4.15;;;;;;;;;;5044521;28;20502;-81
2021/08/31 01:47:33;;;;;;;10.77;4.03;;;;;;;;;;5040684;28;20025;-81
2021/08/31 01:49:59;;;;;;;;;;;;;;;;;;5053500;28;20025;-81
2021/08/31 01:52:25;;;;;;;9.80;3.58;;;;;;;;;;5038394;28;20684;-83
2021/08/31 01:54:51;;;;;;;9.85;4.07;;;;;;;;;;5035211;28;20024;-82
2021/08/31 01:57:17;;;;;;;9.25;3.95;;;;;;;;;;5041195;28;20029;-82
2021/08/31 01:59:43;;;;;;;10.48;3.92;;;;;;;;;;5042510;28;20048;-81
2021/08/31 02:02:09;;;;;;;;;;;;;;;;;;5039839;28;20024;-81
2021/08/31 02:04:35;;;;;;;11.68;4.00;;;;;;;;;;5044531;28;20466;-81
2021/08/31 02:07:02;;;;;;;11.30;3.78;;;;;;;;;;5039361;28;20032;-81
2021/08/31 02:09:27;;;;;;;;;;;;;;;;;;5043416;28;20024;-81
2021/08/31 02:11:54;;;;;;;10.93;4.10;;;;;;;;;;5036256;28;19912;-81
2021/08/31 02:14:20;;;;;;;;;;;;;;;;;;5041241;28;20107;-81
2021/08/31 02:16:46;;;;;;;11.20;3.40;;;;;;;;;;5053679;28;19912;-83
2021/08/31 02:19:12;;;;;;;;;;;;;;;;;;5041299;28;20040;-82
2021/08/31 02:21:38;;;;;;;11.32;3.60;;;;;;;;;;5040107;28;19913;-83
2021/08/31 02:24:04;;;;;;;9.77;4.20;;;;;;;;;;5041939;28;20025;-81
2021/08/31 02:26:33;;;;;;;12.60;4.10;;;;;;;;;;5040148;28;20112;-81
2021/08/31 02:28:59;;;;;;;11.30;3.92;;;;;;;;;;5040394;28;20595;-82
2021/08/31 02:31:25;;;;;;;;;;;;;;;;;;5052252;28;20029;-81
2021/08/31 02:33:51;;;;;;;11.30;3.50;;;;;;;;;;5049834;28;20272;-81
2021/08/31 02:36:17;;;;;;;8.70;3.45;;;;;;;;;;5052702;28;20027;-81
2021/08/31 02:38:43;;;;;;;11.30;3.78;;;;;;;;;;5045126;28;20017;-82
2021/08/31 02:41:09;;;;;;;11.90;3.75;;;;;;;;;;5046081;28;20029;-82
2021/08/31 02:43:35;;;;;;;;;;;;;;;;;;5048116;28;20047;-81
2021/08/31 02:46:01;;;;;;;11.63;3.95;;;;;;;;;;5039931;28;19912;-81
2021/08/31 02:48:27;;;;;;;10.88;3.83;;;;;;;;;;5043918;28;20027;-81
2021/08/31 02:50:54;;;;;;;10.65;3.95;;;;;;;;;;5037276;28;20024;-82
2021/08/31 02:53:20;;;;;;;10.73;3.72;;;;;;;;;;5047276;28;20024;-81
2021/08/31 02:55:46;;;;;;;;;;;;;;;;;;5041454;28;20024;-82
2021/08/31 02:58:12;;;;;;;9.70;3.72;;;;;;;;;;5045995;28;20530;-82
2021/08/31 03:00:42;;;;;;;10.20;3.67;;;;;;;;;;5040645;28;20087;-83
2021/08/31 03:03:09;;;;;;;9.45;3.58;;;;;;;;;;5043467;28;20492;-81
2021/08/31 03:05:35;;;;;;;11.75;3.42;;;;;;;;;;5042664;28;20045;-83
2021/08/31 03:08:01;;;;;;;9.85;3.65;;;;;;;;;;5055667;28;20078;-83
2021/08/31 03:10:28;;;;;;;10.00;3.90;;;;;;;;;;5046208;28;20024;-82
2021/08/31 03:12:54;;;;;;;9.00;3.47;;;;;;;;;;5036184;28;20036;-82
2021/08/31 03:15:20;;;;;;;11.27;4.05;;;;;;;;;;5043263;28;20438;-82
2021/08/31 03:17:46;;;;;;;10.40;4.00;;;;;;;;;;5033922;28;20457;-82
2021/08/31 03:20:12;;;;;;;8.25;3.45;;;;;;;;;;5046398;28;20036;-81
2021/08/31 03:22:39;;;;;;;11.15;3.58;;;;;;;;;;5042073;28;20055;-82
2021/08/31 03:25:05;;;;;;;11.15;3.70;;;;;;;;;;5041257;28;20056;-83
2021/08/31 03:27:31;;;;;;;11.68;3.90;;;;;;;;;;5044606;28;20109;-83
2021/08/31 03:29:57;;;;;;;;;;;;;;;;;;5038557;28;20115;-81
2021/08/31 03:32:23;;;;;;;9.00;3.90;;;;;;;;;;5041878;28;19922;-84
2021/08/31 03:34:49;;;;;;;;;;;;;;;;;;5038864;28;20028;-82
2021/08/31 03:37:16;;;;;;;9.35;3.60;;;;;;;;;;5041751;28;20264;-83
2021/08/31 03:39:42;;;;;;;10.90;3.72;;;;;;;;;;5039362;28;20024;-82
2021/08/31 03:42:08;;;;;;;;;;;;;;;;;;5044553;28;20036;-81
2021/08/31 03:44:34;;;;;;;10.07;3.78;;;;;;;;;;5044376;28;19916;-82
2021/08/31 03:47:00;;;;;;;10.27;3.85;;;;;;;;;;5043713;28;20028;-82
2021/08/31 03:49:26;;;;;;;10.90;3.75;;;;;;;;;;5041373;28;20017;-81
2021/08/31 03:51:52;;;;;;;;;;;;;;;;;;5040467;28;20020;-77
2021/08/31 03:54:18;;;;;;;9.65;3.88;;;;;;;;;;5044917;28;19909;-77
2021/08/31 03:56:44;;;;;;;;;;;;;;;;;;5035846;28;20070;-78
2021/08/31 03:59:10;;;;;;;11.45;3.70;;;;;;;;;;5039768;28;19916;-78
2021/08/31 04:01:37;;;;;;;10.05;3.45;;;;;;;;;;5036142;28;20024;-78
2021/08/31 04:04:03;;;;;;;10.60;3.40;;;;;;;;;;5045185;28;20058;-77
2021/08/31 04:06:29;;;;;;;8.90;3.58;;;;;;;;;;5039998;28;20033;-78
2021/08/31 04:08:55;;;;;;;11.57;3.67;;;;;;;;;;5036126;28;20086;-78
2021/08/31 04:11:21;;;;;;;;;;;;;;;;;;5044089;28;20098;-78
2021/08/31 04:13:47;;;;;;;10.05;3.58;;;;;;;;;;5037034;28;20194;-78
2021/08/31 04:16:14;;;;;;;9.18;3.60;;;;;;;;;;5043320;28;20115;-78
2021/08/31 04:18:40;;;;;;;9.52;3.50;;;;;;;;;;5036069;28;20075;-77
2021/08/31 04:21:06;;;;;;;;;;;;;;;;;;5048082;28;20087;-78
2021/08/31 04:23:32;;;;;;;11.18;3.70;;;;;;;;;;5039430;28;20019;-78
2021/08/31 04:25:58;;;;;;;;;;;;;;;;;;5040306;28;20046;-78
2021/08/31 04:28:24;;;;;;;9.95;3.80;;;;;;;;;;5044778;28;19935;-78
2021/08/31 04:30:50;;;;;;;9.38;3.90;;;;;;;;;;5039856;28;20101;-79
2021/08/31 04:33:16;;;;;;;;;;;;;;;;;;5042029;28;20024;-77
2021/08/31 04:35:42;;;;;;;10.75;3.88;;;;;;;;;;5038270;28;19916;-77
2021/08/31 04:38:08;;;;;;;10.48;3.70;;;;;;;;;;5039888;28;20154;-78
2021/08/31 04:40:34;;;;;;;;;;;;;;;;;;5044160;28;20024;-78
2021/08/31 04:43:01;;;;;;;10.15;4.18;;;;;;;;;;5039668;28;19970;-78
2021/08/31 04:45:27;;;;;;;10.07;4.28;;;;;;;;;;5041982;28;20446;-79
2021/08/31 04:47:53;;;;;;;12.35;4.70;;;;;;;;;;5041198;28;20052;-78
2021/08/31 04:50:19;;;;;;;;;;;;;;;;;;5041096;28;20021;-78
2021/08/31 04:52:46;;;;;;;11.82;4.28;;;;;;;;;;5036915;28;20442;-78
2021/08/31 04:55:12;;;;;;;12.75;4.47;;;;;;;;;;5039309;28;20048;-78
2021/08/31 04:57:39;;;;;;;10.25;3.63;;;;;;;;;;5039838;28;20081;-77
2021/08/31 05:00:05;;;;;;;12.93;4.30;;;;;;;;;;5043648;28;20032;-78
2021/08/31 05:02:33;;;;;;;13.88;4.22;;;;;;;;;;5039915;28;20024;-77
2021/08/31 05:05:00;;;;;;;12.13;4.10;;;;;;;;;;5035814;28;20048;-77
2021/08/31 05:07:26;;;;;;;11.77;4.15;;;;;;;;;;5040327;28;20039;-78
2021/08/31 05:09:52;;;;;;;10.35;3.90;;;;;;;;;;5042472;28;20028;-77
2021/08/31 05:12:18;;;;;;;10.77;3.90;;;;;;;;;;5035713;28;20569;-77
2021/08/31 05:14:44;;;;;;;12.05;4.10;;;;;;;;;;5037585;28;20032;-78
2021/08/31 05:17:11;;;;;;;13.52;3.80;;;;;;;;;;5041466;28;20031;-79
2021/08/31 05:19:38;;;;;;;11.73;4.13;;;;;;;;;;5041076;28;20028;-78
2021/08/31 05:22:05;;;;;;;11.43;3.65;;;;;;;;;;5038278;28;20035;-78
2021/08/31 05:24:31;;;;;;;10.98;4.10;;;;;;;;;;5036558;28;20095;-78
2021/08/31 05:26:57;;;;;;;8.45;3.70;;;;;;;;;;5034630;28;20037;-78
2021/08/31 05:29:23;;;;;;;9.60;3.80;;;;;;;;;;5041943;28;20632;-78
2021/08/31 05:31:49;;;;;;;;;;;;;;;;;;5035830;28;20102;-78
2021/08/31 05:34:16;;;;;;;12.75;3.78;;;;;;;;;;5039757;28;20393;-78
2021/08/31 05:36:42;;;;;;;11.32;3.85;;;;;;;;;;5034533;28;20150;-78
2021/08/31 05:39:09;;;;;;;12.55;3.92;;;;;;;;;;5039633;28;21012;-78
2021/08/31 05:41:35;;;;;;;11.02;3.78;;;;;;;;;;5042558;28;20119;-78
2021/08/31 05:44:02;;;;;;;10.20;3.47;;;;;;;;;;5036843;28;20480;-78
2021/08/31 05:46:28;;;;;;;8.65;3.38;;;;;;;;;;5039403;28;20038;-79
2021/08/31 05:48:54;;;;;;;10.85;4.07;;;;;;;;;;5034884;28;20036;-79
2021/08/31 05:51:21;;;;;;;;;;;;;;;;;;5040074;28;20029;-78
2021/08/31 05:53:48;;;;;;;8.93;3.72;;;;;;;;;;5032256;28;19915;-79
2021/08/31 05:56:14;;;;;;;9.77;3.92;;;;;;;;;;5039656;28;20511;-78
2021/08/31 05:58:40;;;;;;;;;;;;;;;;;;5034393;28;20056;-78
2021/08/31 06:01:06;;;;;;;9.18;3.63;;;;;;;;;;5037185;28;20672;-78
2021/08/31 06:03:32;;;;;;;11.25;4.07;;;;;;;;;;5036670;28;20039;-78
2021/08/31 06:05:59;;;;;;;10.25;3.75;;;;;;;;;;5033483;28;20049;-78
2021/08/31 06:08:26;;;;;;;9.88;4.03;;;;;;;;;;5038304;28;20031;-77
2021/08/31 06:10:52;;;;;;;9.52;4.10;;;;;;;;;;5034419;28;20670;-78
2021/08/31 06:13:18;;;;;;;12.20;4.20;;;;;;;;;;5040959;28;20024;-79
2021/08/31 06:15:44;;;;;;;12.32;4.10;;;;;;;;;;5034931;28;20036;-77
2021/08/31 06:18:10;;;;;;;12.20;4.20;;;;;;;;;;5038284;28;20472;-79
2021/08/31 06:20:37;;;;;;;20.15;4.43;;;;;;;;;;5037521;28;20060;-80
2021/08/31 06:23:03;;;;;;;17.35;4.15;;;;;;;;;;5036876;28;20713;-77
2021/08/31 06:25:30;;;;;;;19.50;4.45;;;;;;;;;;5037543;28;20070;-77
2021/08/31 06:27:56;;;;;;;17.13;4.20;;;;;;;;;;5034700;28;20025;-77
2021/08/31 06:30:22;;;;;;;12.75;3.85;;;;;;;;;;5041234;28;20025;-78
2021/08/31 06:32:48;;;;;;;14.35;4.00;;;;;;;;;;5034300;28;20029;-77
2021/08/31 06:35:14;;;;;;;15.02;3.72;;;;;;;;;;5036251;28;20635;-78
2021/08/31 06:37:40;;;;;;;15.32;3.97;;;;;;;;;;5040764;28;20062;-78
2021/08/31 06:40:07;;;;;;;17.85;4.07;;;;;;;;;;5039147;28;20052;-79
2021/08/31 06:42:33;;;;;;;19.90;4.50;;;;;;;;;;5041785;28;20078;-79
2021/08/31 06:44:59;;;;;;;24.05;4.78;;;;;;;;;;5033529;28;20036;-78
2021/08/31 06:47:26;;;;;;;19.77;4.32;;;;;;;;;;5037803;28;20024;-79
2021/08/31 06:49:52;;;;;;;21.67;4.55;;;;;;;;;;5048630;28;20021;-79
2021/08/31 06:52:18;;;;;;;16.38;5.00;;;;;;;;;;5042024;28;20036;-79
2021/08/31 06:54:44;;;;;;;15.35;4.25;;;;;;;;;;5035223;28;20029;-79
2021/08/31 06:57:10;;;;;;;17.65;4.30;;;;;;;;;;5039062;28;20067;-79
2021/08/31 06:59:37;;;;;;;19.42;4.38;;;;;;;;;;5041059;28;20421;-77
2021/08/31 07:02:03;;;;;;;15.63;4.20;;;;;;;;;;5038606;28;20035;-79
2021/08/31 07:04:29;;;;;;;15.65;4.28;;;;;;;;;;5040502;28;20701;-78
2021/08/31 07:06:55;;;;;;;10.48;3.88;;;;;;;;;;5037501;28;20041;-78
2021/08/31 07:09:22;;;;;;;16.63;3.75;;;;;;;;;;5040937;28;20021;-78
2021/08/31 07:11:48;;;;;;;11.35;3.50;;;;;;;;;;5030494;28;20068;-78
2021/08/31 07:14:14;;;;;;;10.38;3.28;;;;;;;;;;5042599;28;20025;-77
2021/08/31 07:16:40;;;;;;;12.95;3.50;;;;;;;;;;5031862;28;20033;-78
2021/08/31 07:19:06;;;;;;;10.35;3.50;;;;;;;;;;5043055;28;20036;-78
2021/08/31 07:21:33;;;;;;;9.88;3.38;;;;;;;;;;5038046;28;20735;-78
2021/08/31 07:23:59;;;;;;;12.52;3.40;;;;;;;;;;5039020;28;20106;-79
2021/08/31 07:26:25;;;;;;;9.55;3.40;;;;;;;;;;5041116;28;20463;-78
2021/08/31 07:28:51;;;;;;;11.80;3.28;;;;;;;;;;5039375;28;20582;-78
2021/08/31 07:31:17;;;;;;;10.05;3.40;;;;;;;;;;5046184;28;20471;-77
2021/08/31 07:33:44;;;;;;;9.10;3.05;;;;;;;;;;5036361;28;20044;-78
2021/08/31 07:36:11;;;;;;;11.23;3.50;;;;;;;;;;5044143;28;20032;-78
2021/08/31 07:38:37;;;;;;;11.05;3.30;;;;;;;;;;5038130;28;20028;-78
2021/08/31 07:41:04;;;;;;;10.48;3.60;;;;;;;;;;5060021;28;20158;-79
2021/08/31 07:43:30;;;;;;;12.05;3.60;;;;;;;;;;5040306;28;23355;-78
2021/08/31 07:45:56;;;;;;;13.75;3.45;;;;;;;;;;5041678;28;21515;-79
2021/08/31 07:48:22;;;;;;;12.15;3.58;;;;;;;;;;5041029;28;20119;-79
2021/08/31 07:50:49;;;;;;;10.00;3.60;;;;;;;;;;5037615;28;20028;-79
2021/08/31 07:53:15;;;;;;;12.38;3.42;;;;;;;;;;5044021;28;20052;-78
2021/08/31 07:55:41;;;;;;;10.05;3.20;;;;;;;;;;5034311;28;20160;-78
2021/08/31 07:58:07;;;;;;;11.02;3.20;;;;;;;;;;5040212;28;20035;-78
2021/08/31 08:00:36;;;;;;;10.55;3.10;;;;;;;;;;5041051;28;20029;-78
2021/08/31 08:03:02;;;;;;;11.07;2.92;;;;;;;;;;5042973;28;20832;-78
2021/08/31 08:05:28;;;;;;;11.93;2.78;;;;;;;;;;5040569;28;20073;-79
2021/08/31 08:07:54;;;;;;;12.00;3.17;;;;;;;;;;5040895;28;20024;-78
2021/08/31 08:10:20;;;;;;;10.32;3.13;;;;;;;;;;5040472;28;20499;-78
2021/08/31 08:12:46;;;;;;;7.65;3.05;;;;;;;;;;5040655;28;20024;-78
2021/08/31 08:15:13;;;;;;;12.23;3.70;;;;;;;;;;5042987;28;20032;-79
2021/08/31 08:17:40;;;;;;;10.90;3.05;;;;;;;;;;5039401;28;20021;-78
2021/08/31 08:20:08;;;;;;;9.57;2.92;;;;;;;;;;5044693;28;20733;-79
2021/08/31 08:22:34;;;;;;;9.13;2.55;;;;;;;;;;5042685;28;20039;-79
2021/08/31 08:25:00;;;;;;;11.45;3.20;;;;;;;;;;5051594;28;20039;-78
2021/08/31 08:27:27;;;;;;;11.30;2.97;;;;;;;;;;5046263;28;20033;-78
2021/08/31 08:29:53;;;;;;;9.38;2.65;;;;;;;;;;5038299;28;20027;-79
2021/08/31 08:32:19;;;;;;;7.28;2.20;;;;;;;;;;5039575;28;20044;-79
2021/08/31 08:34:45;;;;;;;9.35;2.60;;;;;;;;;;5037670;28;20139;-80
2021/08/31 08:37:11;;;;;;;9.65;2.72;;;;;;;;;;5041830;28;20025;-79
2021/08/31 08:39:38;;;;;;;8.35;2.63;;;;;;;;;;5036184;28;20025;-78
2021/08/31 08:42:05;;;;;;;8.20;2.10;;;;;;;;;;5042438;28;20035;-78
2021/08/31 08:44:31;;;;;;;8.35;2.50;;;;;;;;;;5036459;28;20128;-79
2021/08/31 08:46:58;;;;;;;8.45;2.33;;;;;;;;;;5041146;28;21813;-78
2021/08/31 08:49:24;;;;;;;8.95;2.22;;;;;;;;;;5043208;28;20031;-78
2021/08/31 08:51:53;;;;;;;6.55;2.20;;;;;;;;;;5040399;28;20032;-79
2021/08/31 08:54:19;;;;;;;9.35;2.60;;;;;;;;;;5039956;28;20031;-78
2021/08/31 08:56:46;;;;;;;11.77;2.47;;;;;;;;;;5038329;28;20032;-78
2021/08/31 08:59:13;;;;;;;7.20;2.10;;;;;;;;;;5043668;28;20036;-78
2021/08/31 09:01:47;;;;;;;11.15;2.90;;;;;;;;;;5036090;28;20032;-79
2021/08/31 09:04:14;;;;;;;11.27;2.53;;;;;;;;;;5042405;28;20036;-79
2021/08/31 09:06:41;;;;;;;11.05;2.53;;;;;;;;;;5035261;28;20123;-79
2021/08/31 09:09:08;;;;;;;10.13;2.60;;;;;;;;;;5044283;28;20375;-78
2021/08/31 09:11:34;;;;;;;11.23;2.45;;;;;;;;;;5044164;28;20028;-79
2021/08/31 09:14:15;;;;;;;8.30;2.72;;;;;;;;;;5040221;28;20039;-79
2021/08/31 09:16:42;;;;;;;8.00;2.40;;;;;;;;;;5034964;28;20020;-79
2021/08/31 09:19:08;;;;;;;13.05;2.70;;;;;;;;;;5044106;28;20503;-79
2021/08/31 09:21:35;;;;;;;10.73;2.53;;;;;;;;;;5042779;28;20182;-79
2021/08/31 09:24:02;;;;;;;9.73;2.70;;;;;;;;;;5036138;28;20040;-79
2021/08/31 09:26:33;;;;;;;9.10;2.60;;;;;;;;;;5038757;28;20396;-79
2021/08/31 09:29:03;;;;;;;8.00;2.53;;;;;;;;;;5035779;28;20555;-79
2021/08/31 09:31:42;;;;;;;10.98;2.60;;;;;;;;;;5042392;28;20033;-79
2021/08/31 09:34:08;;;;;;;11.38;2.80;;;;;;;;;;5037234;28;20655;-78
2021/08/31 09:36:36;;;;;;;7.68;2.33;;;;;;;;;;5039396;28;20055;-79
2021/08/31 09:39:05;;;;;;;11.57;2.40;;;;;;;;;;5037548;28;20044;-81
2021/08/31 09:41:41;;;;;;;8.40;2.58;;;;;;;;;;5041525;28;20111;-80
2021/08/31 09:44:13;;;;;;;12.90;2.88;;;;;;;;;;5042935;28;20342;-81
2021/08/31 09:46:59;;;;;;;8.02;2.25;;;;;;;;;;5037412;28;20798;-81
2021/08/31 09:49:26;;;;;;;6.57;2.03;;;;;;;;;;5044951;28;20020;-80
2021/08/31 09:52:11;;;;;;;6.65;2.28;;;;;;;;;;5028945;28;20116;-80
2021/08/31 09:54:41;;;;;;;8.05;2.17;;;;;;;;;;5038391;28;20029;-80
2021/08/31 09:57:26;;;;;;;7.80;1.95;;;;;;;;;;5042755;28;20610;-80
2021/08/31 09:59:52;;;;;;;7.13;2.08;;;;;;;;;;5039668;28;20029;-81
2021/08/31 10:02:19;;;;;;;6.57;2.17;;;;;;;;;;5044795;28;20139;-81
2021/08/31 10:04:45;;;;;;;6.55;2.38;;;;;;;;;;5036446;28;20032;-80
2021/08/31 10:07:13;;;;;;;6.50;2.10;;;;;;;;;;5046179;28;20063;-81
2021/08/31 10:09:40;;;;;;;8.25;2.20;;;;;;;;;;5036165;28;20033;-81
2021/08/31 10:12:08;;;;;;;9.38;2.13;;;;;;;;;;5042640;28;20417;-80
2021/08/31 10:14:36;;;;;;;9.18;2.13;;;;;;;;;;5040516;28;20063;-82
2021/08/31 10:17:02;;;;;;;5.28;2.00;;;;;;;;;;5039633;28;20024;-81
2021/08/31 10:19:29;;;;;;;7.65;2.08;;;;;;;;;;5039013;28;20750;-81
2021/08/31 10:21:55;;;;;;;5.55;1.80;;;;;;;;;;5037686;28;20575;-81
2021/08/31 10:24:21;;;;;;;6.55;1.90;;;;;;;;;;5058909;28;20036;-81
2021/08/31 10:26:47;;;;;;;7.22;2.15;;;;;;;;;;5037799;28;20029;-81
2021/08/31 10:29:14;;;;;;;5.78;1.58;;;;;;;;;;5041579;28;20073;-81
2021/08/31 10:31:41;;;;;;;7.78;2.08;;;;;;;;;;5031785;28;20035;-80
2021/08/31 10:34:26;;;;;;;9.05;2.03;;;;;;;;;;5058122;28;20032;-81
2021/08/31 10:37:00;;;;;;;7.30;1.90;;;;;;;;;;5035312;28;20018;-82
2021/08/31 10:39:42;;;;;;;6.45;1.90;;;;;;;;;;5038659;28;20763;-81
2021/08/31 10:42:11;;;;;;;5.15;1.75;;;;;;;;;;5042073;28;20158;-81
2021/08/31 10:44:43;;;;;;;5.82;1.70;;;;;;;;;;5039947;28;20144;-81
2021/08/31 10:47:13;;;;;;;7.40;1.80;;;;;;;;;;5040133;28;20032;-81
2021/08/31 10:50:08;;;;;;;5.63;1.83;;;;;;;;;;5036310;28;20491;-81
2021/08/31 10:52:41;;;;;;;7.10;1.83;;;;;;;;;;5038203;28;20043;-82
2021/08/31 10:55:27;;;;;;;9.63;1.90;;;;;;;;;;5043572;28;20079;-82
2021/08/31 10:57:54;;;;;;;8.18;1.90;;;;;;;;;;5038849;28;20029;-82
2021/08/31 11:00:20;;;;;;;7.88;2.00;;;;;;;;;;5042073;28;20476;-82
2021/08/31 11:02:49;;;;;;;6.20;1.83;;;;;;;;;;5040718;28;20553;-83
2021/08/31 11:05:21;;;;;;;8.43;1.85;;;;;;;;;;5048408;28;20766;-82
2021/08/31 11:07:48;;;;;;;5.38;1.58;;;;;;;;;;5041062;28;20027;-80
2021/08/31 11:10:21;;;;;;;7.40;1.70;;;;;;;;;;5044659;28;20534;-81
2021/08/31 11:12:47;;;;;;;7.45;2.00;;;;;;;;;;5043433;28;20024;-80
2021/08/31 11:15:20;;;;;;;7.50;1.83;;;;;;;;;;5043939;28;20479;-81
2021/08/31 11:17:48;;;;;;;6.65;1.80;;;;;;;;;;5038524;28;20028;-81
2021/08/31 11:20:15;;;;;;;7.95;2.80;;;;;;;;;;5044284;28;20128;-81
2021/08/31 11:22:41;;;;;;;7.10;2.03;;;;;;;;;;5045148;28;20047;-81
2021/08/31 11:25:08;;;;;;;5.07;1.70;;;;;;;;;;5047243;28;20063;-81
2021/08/31 11:27:52;;;;;;;7.45;2.08;;;;;;;;;;5045828;28;20028;-81
2021/08/31 11:30:18;;;;;;;6.00;1.67;;;;;;;;;;5043180;28;20012;-82
2021/08/31 11:32:45;;;;;;;5.40;1.60;;;;;;;;;;5041015;28;20318;-81
2021/08/31 11:35:11;;;;;;;5.97;1.92;;;;;;;;;;5044762;28;20419;-81
2021/08/31 11:37:47;;;;;;;5.68;1.80;;;;;;;;;;5041981;28;20020;-80
2021/08/31 11:40:13;;;;;;;6.40;1.80;;;;;;;;;;5044603;28;20059;-82
2021/08/31 11:42:53;;;;;;;5.88;2.00;;;;;;;;;;5038688;28;20117;-83
2021/08/31 11:45:19;;;;;;;5.47;2.00;;;;;;;;;;5044053;28;20036;-81
2021/08/31 11:47:46;;;;;;;5.43;1.60;;;;;;;;;;5039821;28;20052;-81
2021/08/31 11:50:13;;;;;;;5.47;1.70;;;;;;;;;;5042093;28;20034;-81
2021/08/31 11:52:39;;;;;;;6.03;1.65;;;;;;;;;;5042440;28;20028;-79
2021/08/31 11:55:05;;;;;;;6.13;1.90;;;;;;;;;;5040897;28;20111;-82
2021/08/31 11:57:32;;;;;;;6.45;2.40;;;;;;;;;;5046760;28;20452;-81
2021/08/31 11:59:58;;;;;;;7.10;1.90;;;;;;;;;;5037560;28;20029;-82
2021/08/31 12:02:25;;;;;;;6.40;1.80;;;;;;;;;;5042829;28;20025;-81
2021/08/31 12:04:58;;;;;;;5.32;1.73;;;;;;;;;;5037258;28;20047;-81
2021/08/31 12:07:31;;;;;;;6.63;1.70;;;;;;;;;;5043739;28;20044;-81
2021/08/31 12:10:22;;;;;;;7.88;1.70;;;;;;;;;;5037516;28;20028;-81
2021/08/31 12:12:48;;;;;;;6.68;1.92;;;;;;;;;;5030508;28;20033;-81
2021/08/31 12:15:14;;;;;;;6.75;1.95;;;;;;;;;;5045631;28;20040;-81
2021/08/31 12:17:45;;;;;;;7.78;2.10;;;;;;;;;;5036869;28;20048;-82
2021/08/31 12:20:12;;;;;;;6.63;2.00;;;;;;;;;;5049761;28;20028;-81
2021/08/31 12:22:42;;;;;;;7.50;2.10;;;;;;;;;;5036966;28;20028;-81
2021/08/31 12:25:09;;;;;;;8.02;1.80;;;;;;;;;;5041751;28;20067;-81
2021/08/31 12:27:42;;;;;;;6.35;1.90;;;;;;;;;;5039909;28;20029;-82
2021/08/31 12:30:13;;;;;;;6.15;1.95;;;;;;;;;;5047879;28;20048;-82
2021/08/31 12:32:40;;;;;;;6.72;2.10;;;;;;;;;;5038389;28;20020;-84
2021/08/31 12:35:24;;;;;;;7.43;2.20;;;;;;;;;;5038436;28;20029;-82
2021/08/31 12:38:04;;;;;;;5.32;1.95;;;;;;;;;;5055420;28;20037;-83
2021/08/31 12:40:30;;;;;;;7.15;2.08;;;;;;;;;;5044118;28;20044;-80
2021/08/31 12:43:08;;;;;;;7.55;2.10;;;;;;;;;;5042372;28;20205;-83
2021/08/31 12:45:34;;;;;;;5.50;1.90;;;;;;;;;;5043316;28;20044;-81
2021/08/31 12:48:01;;;;;;;6.82;1.90;;;;;;;;;;5040085;28;20479;-81
2021/08/31 12:50:28;;;;;;;5.93;1.98;;;;;;;;;;5060572;28;20033;-81
2021/08/31 12:52:58;;;;;;;5.38;1.50;;;;;;;;;;5039032;28;20032;-82
2021/08/31 12:55:31;;;;;;;7.95;2.00;;;;;;;;;;5047234;28;20035;-80
2021/08/31 12:58:17;;;;;;;7.45;2.03;;;;;;;;;;5041718;28;20040;-80
2021/08/31 13:00:44;;;;;;;6.75;1.98;;;;;;;;;;5074005;28;20044;-81
2021/08/31 13:03:29;;;;;;;7.90;2.10;;;;;;;;;;5059495;28;20484;-81
2021/08/31 13:05:56;;;;;;;7.65;2.58;;;;;;;;;;5060886;28;20144;-81
2021/08/31 13:08:22;;;;;;;6.95;2.42;;;;;;;;;;5030854;22;20053;-84
2021/08/31 13:10:48;;;;;;;6.68;2.22;;;;;;;;;;5033484;28;20037;-83
2021/08/31 13:13:14;;;;;;;7.20;2.10;;;;;;;;;;5025960;28;20290;-82
2021/08/31 13:15:40;;;;;;;7.13;2.30;;;;;;;;;;5006748;28;20412;-83
2021/08/31 13:18:07;;;;;;;6.97;2.05;;;;;;;;;;5008543;28;20328;-83
2021/08/31 13:20:33;;;;;;;6.75;2.00;;;;;;;;;;5005088;28;20105;-82
2021/08/31 13:22:59;;;;;;;7.32;1.98;;;;;;;;;;5002015;28;20033;-82
2021/08/31 13:25:25;;;;;;;7.15;2.17;;;;;;;;;;5024125;28;20419;-82
2021/08/31 13:27:51;;;;;;;8.13;2.20;;;;;;;;;;5010248;28;20040;-83
2021/08/31 13:30:17;;;;;;;8.80;2.42;;;;;;;;;;5017564;28;20018;-82
2021/08/31 13:32:44;;;;;;;7.13;2.10;;;;;;;;;;5010896;28;20029;-85
2021/08/31 13:35:10;;;;;;;7.28;1.98;;;;;;;;;;5021190;28;20041;-82
2021/08/31 13:37:36;;;;;;;8.43;1.92;;;;;;;;;;5005720;28;20080;-82
2021/08/31 13:40:02;;;;;;;7.47;2.33;;;;;;;;;;5008114;28;20030;-83
2021/08/31 13:42:29;;;;;;;9.73;2.83;;;;;;;;;;5013683;28;20033;-81
2021/08/31 13:44:55;;;;;;;6.53;1.92;;;;;;;;;;5006577;28;20033;-81
2021/08/31 13:47:21;;;;;;;9.38;2.13;;;;;;;;;;5009695;28;20048;-82
2021/08/31 13:49:47;;;;;;;6.47;1.92;;;;;;;;;;5004719;28;20147;-81
2021/08/31 13:52:13;;;;;;;6.63;1.90;;;;;;;;;;5009619;28;20167;-81
2021/08/31 13:54:39;;;;;;;7.80;2.10;;;;;;;;;;5009459;28;20552;-81
2021/08/31 13:57:07;;;;;;;6.63;1.80;;;;;;;;;;5009071;28;20060;-81
2021/08/31 13:59:33;;;;;;;9.20;1.98;;;;;;;;;;5009247;28;20083;-83
2021/08/31 14:01:59;;;;;;;6.95;1.63;;;;;;;;;;5008505;28;20041;-81
2021/08/31 14:04:25;;;;;;;6.97;1.73;;;;;;;;;;5027013;28;20391;-82
2021/08/31 14:10:09;;;;;;;9.55;2.35;;;;;;;;;;5005408;28;20049;-81
2021/08/31 14:12:35;;;;;;;12.65;2.60;;;;;;;;;;5010586;28;20048;-81
2021/08/31 14:15:01;;;;;;;7.43;2.20;;;;;;;;;;5005919;28;20022;-82
2021/08/31 14:17:27;;;;;;;8.82;2.20;;;;;;;;;;5009511;28;20022;-81
2021/08/31 14:19:54;;;;;;;9.43;2.50;;;;;;;;;;5006980;28;20060;-82
2021/08/31 14:22:20;;;;;;;8.98;2.53;;;;;;;;;;5010215;28;20014;-82
2021/08/31 14:24:46;;;;;;;7.03;2.40;;;;;;;;;;5007954;28;20045;-81
2021/08/31 14:27:12;;;;;;;8.73;2.40;;;;;;;;;;5011995;28;20061;-82
2021/08/31 14:29:39;;;;;;;8.13;2.40;;;;;;;;;;5007507;28;20119;-82
2021/08/31 14:32:05;;;;;;;6.22;2.10;;;;;;;;;;5016012;28;20032;-82
2021/08/31 14:34:31;;;;;;;7.13;2.10;;;;;;;;;;5015276;28;20029;-82
2021/08/31 14:36:58;;;;;;;7.35;2.10;;;;;;;;;;5013540;28;20033;-82
2021/08/31 14:39:24;;;;;;;7.78;2.10;;;;;;;;;;5009256;28;20029;-81
2021/08/31 14:41:50;;;;;;;11.27;2.70;;;;;;;;;;5009423;28;20128;-82
2021/08/31 14:44:17;;;;;;;9.30;3.50;;;;;;;;;;5007570;28;20408;-82
2021/08/31 14:46:43;;;;;;;7.60;2.53;;;;;;;;;;5012703;28;20026;-82